createdAt,value
2018-08-25T00:02:26.940Z,14.51
2018-08-25T00:04:55.327Z,14.50
2018-08-25T00:07:23.671Z,14.56
2018-08-25T00:09:52.031Z,14.58
2018-08-25T00:12:20.581Z,14.49
2018-08-25T00:14:48.944Z,14.42
2018-08-25T00:17:17.611Z,14.38
2018-08-25T00:19:46.005Z,14.47
2018-08-25T00:22:14.340Z,14.45
2018-08-25T00:24:42.715Z,14.49
2018-08-25T00:27:11.051Z,14.42
2018-08-25T00:29:39.408Z,14.42
2018-08-25T00:32:08.020Z,14.34
2018-08-25T00:34:36.381Z,14.30
2018-08-25T00:37:04.756Z,14.36
2018-08-25T00:39:33.103Z,14.34
2018-08-25T00:42:01.460Z,14.49
2018-08-25T00:44:30.131Z,14.33
2018-08-25T00:46:58.892Z,14.34
2018-08-25T00:49:27.267Z,14.33
2018-08-25T00:51:55.596Z,14.22
2018-08-25T00:54:23.956Z,14.28
2018-08-25T00:56:52.333Z,14.36
2018-08-25T00:59:21.210Z,14.22
2018-08-25T01:01:49.484Z,14.23
2018-08-25T01:04:17.866Z,14.09
2018-08-25T01:06:46.408Z,14.02
2018-08-25T01:09:14.788Z,13.96
2018-08-25T01:11:43.172Z,13.93
2018-08-25T01:14:11.576Z,13.96
2018-08-25T01:16:39.916Z,13.95
2018-08-25T01:19:08.744Z,13.86
2018-08-25T01:21:37.092Z,13.82
2018-08-25T01:24:05.559Z,13.88
2018-08-25T01:26:33.892Z,13.78
2018-08-25T01:29:02.283Z,13.82
2018-08-25T01:31:30.604Z,13.75
2018-08-25T01:34:00.660Z,13.71
2018-08-25T01:36:29.294Z,13.64
2018-08-25T01:38:57.664Z,13.55
2018-08-25T01:41:25.979Z,13.55
2018-08-25T01:43:54.327Z,13.55
2018-08-25T01:46:22.676Z,13.58
2018-08-25T01:48:51.024Z,13.60
2018-08-25T01:51:19.373Z,13.53
2018-08-25T01:53:47.736Z,13.65
2018-08-25T01:56:16.076Z,13.65
2018-08-25T01:58:45.000Z,13.58
2018-08-25T02:01:13.369Z,13.51
2018-08-25T02:03:41.776Z,13.51
2018-08-25T02:06:10.097Z,13.55
2018-08-25T02:08:38.744Z,13.41
2018-08-25T02:11:07.086Z,13.39
2018-08-25T02:13:35.416Z,13.34
2018-08-25T02:16:03.824Z,13.37
2018-08-25T02:18:32.193Z,13.43
2018-08-25T02:21:00.688Z,13.34
2018-08-25T02:23:29.016Z,13.43
2018-08-25T02:25:57.348Z,13.38
2018-08-25T02:28:25.675Z,13.33
2018-08-25T02:30:54.016Z,13.34
2018-08-25T02:33:22.396Z,13.35
2018-08-25T02:35:50.761Z,13.47
2018-08-25T02:38:19.100Z,13.30
2018-08-25T02:40:47.448Z,13.19
2018-08-25T02:43:15.824Z,13.05
2018-08-25T02:45:44.691Z,13.02
2018-08-25T02:48:13.011Z,13.01
2018-08-25T02:50:41.665Z,12.89
2018-08-25T02:53:10.024Z,12.88
2018-08-25T02:55:38.392Z,12.87
2018-08-25T02:58:06.729Z,12.83
2018-08-25T03:00:35.089Z,12.84
2018-08-25T03:03:03.873Z,12.97
2018-08-25T03:05:32.233Z,12.96
2018-08-25T03:08:00.985Z,13.03
2018-08-25T03:10:29.336Z,12.92
2018-08-25T03:12:57.696Z,12.80
2018-08-25T03:15:26.037Z,12.78
2018-08-25T03:17:54.367Z,12.78
2018-08-25T03:20:22.720Z,12.78
2018-08-25T03:22:51.266Z,12.79
2018-08-25T03:25:19.628Z,12.75
2018-08-25T03:27:47.955Z,12.77
2018-08-25T03:30:16.742Z,12.85
2018-08-25T03:32:45.065Z,12.88
2018-08-25T03:35:13.412Z,12.85
2018-08-25T03:37:41.735Z,12.84
2018-08-25T03:40:10.252Z,12.74
2018-08-25T03:42:38.592Z,12.66
2018-08-25T03:45:07.020Z,12.61
2018-08-25T03:47:35.343Z,12.63
2018-08-25T03:50:03.713Z,12.58
2018-08-25T03:52:32.036Z,12.57
2018-08-25T03:55:00.380Z,12.55
2018-08-25T03:57:28.729Z,12.61
2018-08-25T03:59:57.103Z,12.67
2018-08-25T04:02:25.415Z,12.74
2018-08-25T04:04:53.784Z,12.66
2018-08-25T04:07:22.129Z,12.67
2018-08-25T04:09:50.819Z,12.55
2018-08-25T04:12:19.544Z,12.58
2018-08-25T04:14:47.936Z,12.54
2018-08-25T04:17:16.568Z,12.53
2018-08-25T04:19:44.907Z,12.59
2018-08-25T04:22:13.423Z,12.55
2018-08-25T04:24:41.739Z,12.60
2018-08-25T04:27:10.085Z,12.67
2018-08-25T04:29:38.416Z,12.65
2018-08-25T04:32:06.808Z,12.60
2018-08-25T04:34:35.132Z,12.67
2018-08-25T04:37:03.926Z,12.65
2018-08-25T04:39:32.292Z,12.64
2018-08-25T04:42:00.632Z,12.61
2018-08-25T04:44:28.968Z,12.75
2018-08-25T04:46:57.327Z,12.72
2018-08-25T04:49:25.679Z,12.93
2018-08-25T04:51:54.544Z,12.90
2018-08-25T04:54:23.144Z,12.96
2018-08-25T04:56:51.536Z,12.92
2018-08-25T04:59:19.869Z,12.95
2018-08-25T05:01:48.278Z,13.05
2018-08-25T05:04:16.584Z,13.15
2018-08-25T05:06:44.953Z,13.05
2018-08-25T05:09:13.277Z,13.09
2018-08-25T05:11:41.639Z,13.09
2018-08-25T05:14:09.981Z,13.10
2018-08-25T05:16:38.342Z,13.22
2018-08-25T05:19:06.676Z,13.02
2018-08-25T05:21:35.157Z,13.10
2018-08-25T05:24:03.491Z,13.06
2018-08-25T05:26:31.860Z,13.08
2018-08-25T05:29:00.192Z,13.15
2018-08-25T05:31:28.565Z,13.21
2018-08-25T05:33:56.904Z,13.07
2018-08-25T05:36:25.252Z,12.96
2018-08-25T05:38:53.584Z,12.89
2018-08-25T05:41:21.920Z,12.67
2018-08-25T05:43:50.257Z,12.59
2018-08-25T05:46:18.616Z,12.62
2018-08-25T05:48:46.938Z,12.36
2018-08-25T05:51:15.275Z,12.41
2018-08-25T05:53:43.633Z,12.44
2018-08-25T05:56:12.012Z,12.19
2018-08-25T05:58:40.372Z,12.31
2018-08-25T06:01:09.321Z,12.19
2018-08-25T06:03:37.650Z,12.14
2018-08-25T06:06:06.028Z,12.01
2018-08-25T06:08:34.378Z,12.25
2018-08-25T06:11:02.691Z,12.05
2018-08-25T06:13:31.081Z,12.13
2018-08-25T06:15:59.830Z,12.14
2018-08-25T06:18:28.197Z,12.19
2018-08-25T06:20:56.537Z,12.12
2018-08-25T06:23:24.897Z,12.14
2018-08-25T06:25:53.265Z,12.20
2018-08-25T06:28:21.615Z,12.15
2018-08-25T06:30:49.939Z,12.18
2018-08-25T06:33:18.281Z,12.07
2018-08-25T06:35:46.712Z,12.16
2018-08-25T06:38:15.064Z,12.37
2018-08-25T06:40:43.389Z,12.42
2018-08-25T06:43:11.728Z,12.48
2018-08-25T06:45:40.072Z,12.52
2018-08-25T06:48:08.861Z,12.35
2018-08-25T06:50:37.191Z,12.51
2018-08-25T06:53:05.681Z,12.21
2018-08-25T06:55:33.993Z,12.40
2018-08-25T06:58:02.349Z,12.58
2018-08-25T07:00:30.672Z,12.79
2018-08-25T07:02:59.031Z,12.92
2018-08-25T07:05:27.387Z,12.94
2018-08-25T07:07:55.753Z,12.99
2018-08-25T07:10:24.115Z,12.59
2018-08-25T07:12:52.627Z,12.83
2018-08-25T07:15:20.933Z,12.98
2018-08-25T07:17:49.275Z,12.87
2018-08-25T07:20:17.609Z,12.75
2018-08-25T07:22:45.965Z,12.52
2018-08-25T07:25:14.318Z,12.79
2018-08-25T07:27:42.684Z,13.10
2018-08-25T07:30:11.025Z,13.41
2018-08-25T07:32:39.881Z,13.17
2018-08-25T07:35:08.259Z,12.94
2018-08-25T07:37:36.596Z,12.65
2018-08-25T07:40:05.061Z,12.62
2018-08-25T07:42:33.399Z,12.53
2018-08-25T07:45:01.733Z,12.61
2018-08-25T07:47:30.096Z,12.39
2018-08-25T07:49:58.427Z,12.28
2018-08-25T07:52:26.801Z,12.42
2018-08-25T07:54:55.132Z,12.53
2018-08-25T07:57:23.517Z,12.68
2018-08-25T07:59:51.908Z,13.15
2018-08-25T08:02:20.259Z,13.01
2018-08-25T08:04:48.639Z,13.11
2018-08-25T08:07:16.944Z,13.50
2018-08-25T08:09:45.658Z,14.54
2018-08-25T08:12:14.070Z,15.19
2018-08-25T08:14:42.381Z,15.78
2018-08-25T08:17:11.300Z,16.75
2018-08-25T08:19:39.652Z,17.65
2018-08-25T08:22:08.081Z,18.77
2018-08-25T08:24:36.870Z,19.85
2018-08-25T08:27:05.749Z,20.67
2018-08-25T08:29:34.110Z,20.51
2018-08-25T08:32:02.472Z,19.03
2018-08-25T08:34:30.816Z,21.09
2018-08-25T08:36:59.189Z,20.92
2018-08-25T08:39:27.578Z,20.96
2018-08-25T08:41:55.900Z,21.27
2018-08-25T08:44:24.272Z,21.49
2018-08-25T08:46:52.601Z,20.50
2018-08-25T08:49:20.971Z,21.17
2018-08-25T08:51:49.295Z,19.97
2018-08-25T08:54:17.729Z,19.78
2018-08-25T08:56:46.060Z,18.81
2018-08-25T08:59:14.424Z,17.84
2018-08-25T09:01:42.757Z,17.52
2018-08-25T09:04:11.104Z,18.36
2018-08-25T09:06:39.446Z,20.21
2018-08-25T09:09:09.492Z,21.40
2018-08-25T09:11:38.429Z,18.97
2018-08-25T09:14:06.804Z,19.63
2018-08-25T09:16:35.116Z,18.71
2018-08-25T09:19:03.497Z,17.36
2018-08-25T09:21:31.816Z,18.06
2018-08-25T09:24:00.192Z,16.46
2018-08-25T09:26:28.550Z,16.93
2018-08-25T09:28:57.207Z,16.35
2018-08-25T09:31:25.650Z,18.32
2018-08-25T09:33:53.999Z,21.04
2018-08-25T09:36:22.471Z,20.48
2018-08-25T09:38:51.843Z,21.11
2018-08-25T09:41:20.212Z,23.13
2018-08-25T09:43:48.701Z,25.18
2018-08-25T09:46:17.015Z,27.76
2018-08-25T09:48:45.372Z,24.43
2018-08-25T09:51:13.712Z,23.45
2018-08-25T09:53:42.152Z,23.99
2018-08-25T09:56:10.424Z,23.84
2018-08-25T09:58:38.779Z,23.28
2018-08-25T10:01:12.780Z,21.13
2018-08-25T10:03:41.224Z,21.97
2018-08-25T10:06:09.824Z,22.11
2018-08-25T10:08:38.175Z,22.71
2018-08-25T10:11:06.621Z,20.13
2018-08-25T10:13:34.960Z,20.61
2018-08-25T10:16:03.284Z,24.30
2018-08-25T10:18:31.665Z,23.07
2018-08-25T10:21:01.017Z,25.40
2018-08-25T10:23:29.437Z,25.11
2018-08-25T10:25:57.752Z,23.47
2018-08-25T10:28:26.104Z,20.60
2018-08-25T10:30:54.439Z,19.43
2018-08-25T10:33:22.785Z,22.37
2018-08-25T10:35:51.838Z,23.39
2018-08-25T10:38:20.572Z,23.90
2018-08-25T10:40:48.932Z,23.46
2018-08-25T10:43:17.265Z,22.98
2018-08-25T10:45:45.607Z,22.85
2018-08-25T10:48:14.021Z,21.80
2018-08-25T10:50:42.343Z,19.69
2018-08-25T10:53:10.664Z,21.47
2018-08-25T10:55:39.008Z,24.79
2018-08-25T10:58:07.332Z,24.56
2018-08-25T11:00:35.870Z,21.30
2018-08-25T11:03:04.589Z,21.03
2018-08-25T11:05:32.968Z,24.77
2018-08-25T11:08:01.303Z,28.17
2018-08-25T11:10:29.661Z,27.30
2018-08-25T11:12:58.322Z,23.30
2018-08-25T11:15:26.688Z,21.06
2018-08-25T11:17:55.013Z,20.65
2018-08-25T11:20:23.382Z,20.81
2018-08-25T11:22:51.726Z,20.65
2018-08-25T11:25:20.087Z,19.28
2018-08-25T11:27:48.415Z,19.29
2018-08-25T11:30:16.804Z,20.87
2018-08-25T11:32:45.201Z,21.59
2018-08-25T11:35:13.551Z,23.33
2018-08-25T11:37:41.957Z,25.49
2018-08-25T11:40:10.268Z,25.29
2018-08-25T11:42:38.588Z,23.25
2018-08-25T11:45:07.192Z,22.19
2018-08-25T11:47:35.531Z,20.46
2018-08-25T11:50:03.937Z,20.46
2018-08-25T11:52:32.261Z,20.35
2018-08-25T11:55:00.621Z,19.63
2018-08-25T11:57:29.237Z,20.45
2018-08-25T11:59:57.596Z,20.73
2018-08-25T12:02:27.801Z,19.53
2018-08-25T12:04:54.328Z,20.64
2018-08-25T12:07:22.653Z,24.55
2018-08-25T12:09:51.012Z,24.93
2018-08-25T12:12:20.525Z,22.83
2018-08-25T12:14:48.868Z,21.80
2018-08-25T12:17:17.220Z,22.56
2018-08-25T12:19:45.563Z,23.95
2018-08-25T12:22:13.913Z,22.74
2018-08-25T12:24:42.264Z,22.60
2018-08-25T12:27:10.604Z,21.53
2018-08-25T12:29:38.988Z,20.73
2018-08-25T12:32:07.328Z,19.12
2018-08-25T12:34:35.659Z,18.18
2018-08-25T12:37:04.060Z,18.06
2018-08-25T12:39:32.400Z,17.93
2018-08-25T12:42:01.551Z,18.65
2018-08-25T12:44:30.401Z,19.29
2018-08-25T12:46:58.760Z,19.77
2018-08-25T12:49:27.080Z,20.22
2018-08-25T12:51:55.424Z,20.74
2018-08-25T12:54:23.793Z,19.43
2018-08-25T12:56:52.156Z,20.32
2018-08-25T12:59:20.541Z,24.16
2018-08-25T13:01:49.012Z,28.10
2018-08-25T13:04:17.356Z,25.35
2018-08-25T13:06:45.737Z,22.83
2018-08-25T13:09:14.064Z,21.73
2018-08-25T13:11:42.420Z,20.81
2018-08-25T13:14:10.961Z,19.05
2018-08-25T13:16:39.339Z,18.80
2018-08-25T13:19:07.688Z,22.09
2018-08-25T13:21:36.050Z,23.91
2018-08-25T13:24:04.395Z,24.88
2018-08-25T13:26:33.081Z,23.64
2018-08-25T13:29:01.412Z,24.48
2018-08-25T13:31:29.765Z,23.32
2018-08-25T13:33:58.219Z,25.08
2018-08-25T13:36:26.569Z,26.73
2018-08-25T13:38:54.907Z,27.50
2018-08-25T13:41:23.256Z,24.57
2018-08-25T13:43:51.599Z,23.15
2018-08-25T13:46:19.952Z,22.20
2018-08-25T13:48:48.276Z,21.60
2018-08-25T13:51:16.640Z,21.89
2018-08-25T13:53:44.974Z,22.66
2018-08-25T13:56:13.606Z,22.95
2018-08-25T13:58:42.116Z,22.09
2018-08-25T14:01:10.772Z,21.92
2018-08-25T14:03:39.088Z,22.32
2018-08-25T14:06:08.351Z,21.94
2018-08-25T14:08:36.684Z,22.14
2018-08-25T14:11:05.045Z,21.64
2018-08-25T14:13:33.357Z,20.59
2018-08-25T14:16:01.800Z,19.70
2018-08-25T14:18:30.044Z,19.59
2018-08-25T14:20:58.406Z,20.09
2018-08-25T14:23:26.736Z,19.60
2018-08-25T14:25:55.128Z,19.92
2018-08-25T14:28:23.468Z,20.34
2018-08-25T14:30:51.821Z,21.19
2018-08-25T14:33:20.157Z,22.84
2018-08-25T14:35:48.496Z,21.88
2018-08-25T14:38:19.061Z,21.81
2018-08-25T14:40:47.838Z,20.63
2018-08-25T14:43:16.188Z,20.97
2018-08-25T14:45:44.770Z,20.92
2018-08-25T14:48:15.206Z,20.11
2018-08-25T14:50:43.944Z,19.49
2018-08-25T14:53:14.432Z,19.36
2018-08-25T14:55:50.536Z,20.04
2018-08-25T14:58:18.945Z,19.73
2018-08-25T15:00:47.323Z,19.56
2018-08-25T15:03:15.672Z,19.41
2018-08-25T15:05:44.027Z,19.04
2018-08-25T15:08:12.420Z,18.71
2018-08-25T15:10:40.760Z,18.70
2018-08-25T15:13:09.650Z,18.60
2018-08-25T15:15:38.229Z,18.80
2018-08-25T15:18:11.896Z,18.62
2018-08-25T15:20:40.293Z,19.14
2018-08-25T15:23:08.633Z,19.29
2018-08-25T15:25:36.953Z,19.58
2018-08-25T15:28:05.557Z,19.38
2018-08-25T15:30:34.770Z,19.61
2018-08-25T15:33:04.117Z,19.16
2018-08-25T15:35:33.792Z,19.36
2018-08-25T15:38:08.384Z,18.95
2018-08-25T15:40:36.755Z,18.66
2018-08-25T15:43:06.304Z,18.44
2018-08-25T15:45:35.865Z,18.39
2018-08-25T15:48:06.539Z,18.11
2018-08-25T15:50:34.902Z,18.30
2018-08-25T15:53:03.335Z,19.06
2018-08-25T15:55:36.576Z,20.57
2018-08-25T15:58:06.935Z,20.38
2018-08-25T16:00:37.682Z,20.74
2018-08-25T16:03:06.140Z,20.09
2018-08-25T16:05:34.676Z,19.48
2018-08-25T16:08:03.047Z,19.32
2018-08-25T16:10:31.372Z,19.40
2018-08-25T16:12:59.735Z,19.21
2018-08-25T16:15:28.053Z,19.79
2018-08-25T16:17:56.403Z,19.56
2018-08-25T16:20:24.789Z,18.58
2018-08-25T16:22:53.135Z,19.04
2018-08-25T16:25:21.482Z,18.98
2018-08-25T16:27:49.845Z,18.81
2018-08-25T16:30:18.217Z,18.66
2018-08-25T16:32:46.604Z,18.71
2018-08-25T16:35:14.920Z,18.31
2018-08-25T16:37:43.378Z,17.55
2018-08-25T16:40:11.946Z,17.81
2018-08-25T16:42:40.311Z,16.96
2018-08-25T16:45:08.656Z,16.60
2018-08-25T16:47:37.016Z,16.73
2018-08-25T16:50:05.392Z,16.45
2018-08-25T16:52:33.772Z,15.91
2018-08-25T16:55:02.546Z,15.95
2018-08-25T16:57:32.054Z,15.76
2018-08-25T17:00:00.889Z,15.62
2018-08-25T17:02:30.133Z,15.38
2018-08-25T17:05:04.342Z,15.28
2018-08-25T17:07:32.739Z,15.28
2018-08-25T17:10:01.069Z,15.30
2018-08-25T17:12:29.408Z,15.21
2018-08-25T17:14:59.343Z,14.97
2018-08-25T17:17:27.745Z,14.82
2018-08-25T17:19:57.628Z,14.69
2018-08-25T17:22:25.913Z,14.47
2018-08-25T17:24:54.510Z,14.46
2018-08-25T17:27:22.836Z,14.41
2018-08-25T17:29:51.221Z,14.30
2018-08-25T17:32:19.560Z,14.21
2018-08-25T17:34:47.934Z,14.11
2018-08-25T17:37:16.289Z,14.10
2018-08-25T17:39:49.775Z,13.94
2018-08-25T17:42:18.138Z,14.06
2018-08-25T17:44:52.273Z,14.47
2018-08-25T17:47:21.553Z,14.24
2018-08-25T17:49:50.657Z,14.08
2018-08-25T17:52:19.028Z,14.11
2018-08-25T17:54:47.377Z,14.07
2018-08-25T17:57:15.825Z,13.87
2018-08-25T17:59:44.144Z,13.74
2018-08-25T18:02:13.960Z,13.66
2018-08-25T18:04:42.528Z,13.63
2018-08-25T18:07:11.000Z,13.30
2018-08-25T18:09:39.352Z,13.15
2018-08-25T18:12:07.697Z,13.09
2018-08-25T18:14:36.036Z,12.87
2018-08-25T18:17:04.423Z,12.76
2018-08-25T18:19:32.781Z,12.66
2018-08-25T18:22:01.121Z,12.54
2018-08-25T18:24:29.504Z,12.21
2018-08-25T18:26:58.164Z,11.91
2018-08-25T18:29:26.528Z,11.61
2018-08-25T18:31:54.924Z,11.38
2018-08-25T18:34:28.343Z,11.33
2018-08-25T18:36:58.201Z,11.26
2018-08-25T18:39:27.815Z,11.14
2018-08-25T18:41:57.461Z,11.03
2018-08-25T18:44:25.916Z,10.96
2018-08-25T18:46:54.240Z,10.83
2018-08-25T18:49:22.588Z,10.65
2018-08-25T18:51:50.888Z,10.54
2018-08-25T18:54:19.264Z,10.55
2018-08-25T18:56:47.616Z,10.46
2018-08-25T18:59:15.975Z,10.64
2018-08-25T19:01:44.333Z,10.66
2018-08-25T19:04:12.705Z,10.62
2018-08-25T19:06:41.040Z,10.64
2018-08-25T19:09:09.660Z,10.62
2018-08-25T19:11:37.992Z,10.77
2018-08-25T19:14:11.360Z,10.84
2018-08-25T19:16:41.355Z,10.99
2018-08-25T19:19:12.156Z,10.98
2018-08-25T19:21:40.524Z,11.00
2018-08-25T19:24:09.260Z,11.04
2018-08-25T19:26:37.593Z,11.23
2018-08-25T19:29:05.953Z,11.28
2018-08-25T19:31:34.275Z,11.44
2018-08-25T19:34:02.628Z,11.36
2018-08-25T19:36:30.989Z,11.38
2018-08-25T19:39:00.660Z,11.39
2018-08-25T19:41:30.459Z,11.29
2018-08-25T19:43:59.244Z,11.31
2018-08-25T19:46:27.716Z,11.17
2018-08-25T19:48:56.028Z,11.03
2018-08-25T19:51:24.443Z,10.86
2018-08-25T19:53:52.769Z,10.62
2018-08-25T19:56:21.144Z,10.44
2018-08-25T19:58:49.489Z,10.24
2018-08-25T20:01:18.064Z,10.12
2018-08-25T20:03:46.449Z,10.06
2018-08-25T20:06:19.778Z,9.80
2018-08-25T20:08:49.060Z,9.70
2018-08-25T20:11:18.461Z,9.68
2018-08-25T20:13:48.169Z,9.53
2018-08-25T20:16:17.872Z,9.41
2018-08-25T20:18:47.086Z,9.30
2018-08-25T20:21:16.106Z,9.35
2018-08-25T20:23:44.470Z,9.20
2018-08-25T20:26:13.665Z,9.04
2018-08-25T20:28:42.587Z,8.88
2018-08-25T20:31:12.684Z,8.84
2018-08-25T20:33:42.044Z,8.96
2018-08-25T20:36:11.750Z,9.01
2018-08-25T20:38:40.108Z,8.81
2018-08-25T20:41:08.464Z,8.73
2018-08-25T20:43:36.804Z,8.62
2018-08-25T20:46:05.591Z,8.55
2018-08-25T20:48:36.206Z,8.47
2018-08-25T20:51:05.024Z,8.39
2018-08-25T20:53:33.352Z,8.50
2018-08-25T20:56:05.182Z,8.60
2018-08-25T20:58:34.110Z,8.64
2018-08-25T21:01:03.799Z,8.71
2018-08-25T21:03:33.905Z,8.57
2018-08-25T21:06:03.048Z,8.27
2018-08-25T21:08:32.033Z,8.32
2018-08-25T21:11:03.055Z,8.30
2018-08-25T21:13:32.697Z,8.19
2018-08-25T21:16:05.156Z,8.09
2018-08-25T21:18:34.937Z,8.34
2018-08-25T21:21:04.822Z,8.26
2018-08-25T21:23:37.210Z,8.28
2018-08-25T21:26:11.557Z,8.30
2018-08-25T21:28:45.214Z,8.40
2018-08-25T21:31:17.011Z,8.25
2018-08-25T21:33:47.228Z,8.32
2018-08-25T21:36:16.267Z,8.32
2018-08-25T21:38:44.572Z,8.30
2018-08-25T21:41:12.905Z,8.33
2018-08-25T21:43:41.248Z,8.17
2018-08-25T21:46:09.746Z,8.15
2018-08-25T21:48:38.258Z,8.01
2018-08-25T21:51:06.702Z,7.94
2018-08-25T21:53:35.460Z,7.83
2018-08-25T21:56:03.843Z,7.74
2018-08-25T21:58:32.252Z,7.71
2018-08-25T22:01:00.706Z,7.57
2018-08-25T22:03:29.209Z,7.61
2018-08-25T22:05:58.531Z,7.68
2018-08-25T22:08:27.729Z,7.87
2018-08-25T22:10:56.905Z,7.79
2018-08-25T22:13:25.787Z,8.01
2018-08-25T22:15:54.840Z,8.05
2018-08-25T22:18:24.637Z,7.97
2018-08-25T22:20:53.935Z,8.01
2018-08-25T22:23:24.106Z,7.97
2018-08-25T22:25:53.774Z,7.93
2018-08-25T22:28:23.911Z,7.79
2018-08-25T22:30:52.615Z,7.78
2018-08-25T22:33:22.370Z,7.71
2018-08-25T22:35:52.144Z,7.46
2018-08-25T22:38:22.569Z,7.28
2018-08-25T22:40:53.336Z,7.40
2018-08-25T22:43:23.265Z,7.44
2018-08-25T22:45:51.632Z,7.21
2018-08-25T22:48:21.790Z,7.16
2018-08-25T22:50:51.513Z,7.05
2018-08-25T22:53:21.017Z,6.81
2018-08-25T22:55:50.664Z,6.85
2018-08-25T22:58:20.133Z,6.87
2018-08-25T23:00:49.727Z,6.78
2018-08-25T23:03:18.268Z,6.74
2018-08-25T23:05:46.601Z,6.71
2018-08-25T23:08:14.940Z,6.65
2018-08-25T23:10:43.276Z,6.52
2018-08-25T23:13:12.273Z,6.67
2018-08-25T23:15:40.608Z,6.74
2018-08-25T23:18:08.956Z,6.54
2018-08-25T23:20:37.296Z,6.60
2018-08-25T23:23:05.692Z,6.35
2018-08-25T23:25:34.044Z,6.52
2018-08-25T23:28:02.436Z,6.43
2018-08-25T23:30:30.897Z,6.35
2018-08-25T23:32:59.409Z,6.35
2018-08-25T23:35:27.732Z,6.35
2018-08-25T23:37:56.778Z,6.26
2018-08-25T23:40:25.237Z,6.19
2018-08-25T23:42:53.611Z,6.33
2018-08-25T23:45:21.949Z,6.40
2018-08-25T23:47:50.569Z,6.31
2018-08-25T23:50:18.901Z,6.39
2018-08-25T23:52:47.259Z,6.40
2018-08-25T23:55:15.580Z,6.25
2018-08-25T23:57:43.915Z,6.26
